Time;durP1;ratioP1;P1;durP2;ratioP2;P2;SDS_P1;SDS_P2;PMS_P1;PMS_P2;Temp;Humidity;BMP_temperature;BMP_pressure;BME280_temperature;BME280_humidity;BME280_pressure;Samples;Min_cycle;Max_cycle;Signal;HPM_P1;HPM_P2
2022/10/09 00:01:26;;;;;;;;;;;7.60;99.90;;;;;;5096566;28;20211;-75
2022/10/09 00:03:54;;;;;;;;;;;7.60;99.90;;;;;;5099215;28;19942;-73
2022/10/09 00:06:22;;;;;;;;;;;7.60;99.90;;;;;;5095669;28;19920;-76
2022/10/09 00:08:49;;;;;;;;;;;7.50;99.90;;;;;;5093442;28;20286;-76
2022/10/09 00:11:17;;;;;;;;;;;7.50;99.90;;;;;;5100763;28;19948;-75
2022/10/09 00:13:43;;;;;;;;;;;7.40;99.90;;;;;;5105279;28;19948;-75
2022/10/09 00:16:13;;;;;;;;;;;7.40;99.90;;;;;;5103200;28;19955;-73
2022/10/09 00:18:41;;;;;;;;;;;7.30;99.90;;;;;;5099807;28;19955;-73
2022/10/09 00:21:14;;;;;;;;;;;7.30;99.90;;;;;;5098606;28;20166;-75
2022/10/09 00:23:41;;;;;;;;;;;7.20;99.90;;;;;;5103536;28;19955;-75
2022/10/09 00:26:08;;;;;;;;;;;7.20;99.90;;;;;;5097495;28;19926;-75
2022/10/09 00:28:34;;;;;;;;;;;7.20;99.90;;;;;;5084597;28;19959;-74
2022/10/09 00:31:03;;;;;;;;;;;7.10;99.90;;;;;;5087873;28;19979;-75
2022/10/09 00:33:30;;;;;;;;;;;7.10;99.90;;;;;;5112756;28;19988;-76
2022/10/09 00:35:58;;;;;;;;;;;7.10;99.90;;;;;;5118798;28;20186;-75
2022/10/09 00:38:24;;;;;;;;;;;7.00;99.90;;;;;;5104594;28;20162;-75
2022/10/09 00:40:51;;;;;;;;;;;7.00;99.90;;;;;;5104351;28;20233;-76
2022/10/09 00:43:19;;;;;;;;;;;6.90;99.90;;;;;;5104188;28;19928;-76
2022/10/09 00:45:49;;;;;;;;;;;6.90;99.90;;;;;;5096605;28;19983;-76
2022/10/09 00:48:16;;;;;;;;;;;6.90;99.90;;;;;;5096430;28;19929;-75
2022/10/09 00:50:45;;;;;;;;;;;6.90;99.90;;;;;;5085426;28;19927;-74
2022/10/09 00:53:15;;;;;;;;;;;6.90;99.90;;;;;;5112532;28;19979;-74
2022/10/09 00:55:42;;;;;;;;;;;6.80;99.90;;;;;;5102822;28;19958;-75
2022/10/09 00:58:09;;;;;;;;;;;6.80;99.90;;;;;;5091243;28;19987;-75
2022/10/09 01:00:35;;;;;;;;;;;6.80;99.90;;;;;;5103696;28;19951;-75
2022/10/09 01:03:02;;;;;;;;;;;6.80;99.90;;;;;;5091445;28;19955;-75
2022/10/09 01:05:33;;;;;;;;;;;6.70;99.90;;;;;;5083378;28;20170;-75
2022/10/09 01:08:05;;;;;;;;;;;6.70;99.90;;;;;;5103308;28;19990;-75
2022/10/09 01:10:37;;;;;;;;;;;6.70;99.90;;;;;;5101202;28;20275;-72
2022/10/09 01:13:07;;;;;;;;;;;6.70;99.90;;;;;;5096827;28;19979;-75
2022/10/09 01:15:37;;;;;;;;;;;6.70;99.90;;;;;;5103033;28;19979;-75
2022/10/09 01:18:06;;;;;;;;;;;6.70;99.90;;;;;;5103170;28;19979;-77
2022/10/09 01:20:51;;;;;;;;;;;6.60;99.90;;;;;;5104032;28;19982;-77
2022/10/09 01:23:29;;;;;;;;;;;6.60;99.90;;;;;;5092354;28;19984;-74
2022/10/09 01:26:05;;;;;;;;;;;6.60;99.90;;;;;;5082994;28;19921;-77
2022/10/09 01:28:34;;;;;;;;;;;6.50;99.90;;;;;;5105356;28;19920;-74
2022/10/09 01:31:02;;;;;;;;;;;6.50;99.90;;;;;;5112105;28;19920;-76
2022/10/09 01:33:30;;;;;;;;;;;6.50;99.90;;;;;;5112179;28;20110;-77
2022/10/09 01:35:57;;;;;;;;;;;6.40;99.90;;;;;;5093577;28;19990;-76
2022/10/09 01:38:24;;;;;;;;;;;6.40;99.90;;;;;;5103947;28;19987;-74
2022/10/09 01:40:51;;;;;;;;;;;6.40;99.90;;;;;;5103743;28;19920;-75
2022/10/09 01:43:18;;;;;;;;;;;6.40;99.90;;;;;;5103589;28;20379;-75
2022/10/09 01:45:47;;;;;;;;;;;6.30;99.90;;;;;;5095921;28;20010;-74
2022/10/09 01:48:16;;;;;;;;;;;6.30;99.90;;;;;;5103798;28;19920;-74
2022/10/09 01:50:44;;;;;;;;;;;6.20;99.90;;;;;;5103554;28;19935;-74
2022/10/09 01:53:12;;;;;;;;;;;6.20;99.90;;;;;;5095819;28;20215;-73
2022/10/09 01:55:43;;;;;;;;;;;6.20;99.90;;;;;;5093237;28;20143;-75
2022/10/09 01:58:10;;;;;;;;;;;6.10;99.90;;;;;;5089903;28;19927;-74
2022/10/09 02:00:39;;;;;;;;;;;6.10;99.90;;;;;;5103626;28;20250;-74
2022/10/09 02:03:09;;;;;;;;;;;6.10;99.90;;;;;;5102906;28;20283;-74
2022/10/09 02:05:36;;;;;;;;;;;6.10;99.90;;;;;;5100194;28;20279;-75
2022/10/09 02:08:04;;;;;;;;;;;6.00;99.90;;;;;;5094883;28;19955;-75
2022/10/09 02:10:31;;;;;;;;;;;6.00;99.90;;;;;;5083273;28;19991;-75
2022/10/09 02:12:59;;;;;;;;;;;6.00;99.90;;;;;;5101359;28;19986;-74
2022/10/09 02:15:28;;;;;;;;;;;5.90;99.90;;;;;;5098293;28;19952;-75
2022/10/09 02:17:58;;;;;;;;;;;5.90;99.90;;;;;;5082516;28;19940;-77
2022/10/09 02:20:27;;;;;;;;;;;5.90;99.90;;;;;;5083107;28;19980;-74
2022/10/09 02:22:55;;;;;;;;;;;5.90;99.90;;;;;;5100412;28;19920;-75
2022/10/09 02:25:21;;;;;;;;;;;5.90;99.90;;;;;;5099512;28;19983;-73
2022/10/09 02:27:48;;;;;;;;;;;5.90;99.90;;;;;;5102426;28;19935;-75
2022/10/09 02:30:15;;;;;;;;;;;5.80;99.90;;;;;;5117839;28;19919;-75
2022/10/09 02:32:42;;;;;;;;;;;5.80;99.90;;;;;;5110596;28;19926;-75
2022/10/09 02:35:08;;;;;;;;;;;5.80;99.90;;;;;;5116086;28;19955;-75
2022/10/09 02:37:36;;;;;;;;;;;5.80;99.90;;;;;;5123617;28;19987;-75
2022/10/09 02:40:03;;;;;;;;;;;5.80;99.90;;;;;;5117199;28;19979;-76
2022/10/09 02:42:30;;;;;;;;;;;5.80;99.90;;;;;;5088889;28;20157;-74
2022/10/09 02:44:56;;;;;;;;;;;5.80;99.90;;;;;;5082275;28;19979;-75
2022/10/09 02:47:23;;;;;;;;;;;5.80;99.90;;;;;;5082561;28;19999;-75
2022/10/09 02:49:50;;;;;;;;;;;5.80;99.90;;;;;;5082826;28;20297;-76
2022/10/09 02:52:16;;;;;;;;;;;5.70;99.90;;;;;;5100519;28;19979;-74
2022/10/09 02:54:44;;;;;;;;;;;5.70;99.90;;;;;;5089494;28;19983;-75
2022/10/09 02:57:11;;;;;;;;;;;5.70;99.90;;;;;;5084665;28;19927;-75
2022/10/09 02:59:38;;;;;;;;;;;5.70;99.90;;;;;;5097144;28;19959;-75
2022/10/09 03:02:04;;;;;;;;;;;5.60;99.90;;;;;;5096317;28;19958;-73
2022/10/09 03:04:31;;;;;;;;;;;5.60;99.90;;;;;;5097117;28;19920;-75
2022/10/09 03:06:57;;;;;;;;;;;5.60;99.90;;;;;;5105718;28;19983;-75
2022/10/09 03:09:24;;;;;;;;;;;5.50;99.90;;;;;;5106380;28;20223;-76
2022/10/09 03:11:52;;;;;;;;;;;5.50;99.90;;;;;;5105549;28;19987;-75
2022/10/09 03:14:19;;;;;;;;;;;5.50;99.90;;;;;;5096358;28;19920;-75
2022/10/09 03:16:45;;;;;;;;;;;5.40;99.90;;;;;;5085553;28;19992;-75
2022/10/09 03:19:12;;;;;;;;;;;5.40;99.90;;;;;;5086092;28;19983;-75
2022/10/09 03:21:39;;;;;;;;;;;5.40;99.90;;;;;;5093066;28;19963;-75
2022/10/09 03:24:05;;;;;;;;;;;5.40;99.90;;;;;;5117264;28;19947;-75
2022/10/09 03:26:32;;;;;;;;;;;5.40;99.90;;;;;;5125289;28;19991;-75
2022/10/09 03:29:00;;;;;;;;;;;5.40;99.90;;;;;;5115684;28;20274;-75
2022/10/09 03:31:27;;;;;;;;;;;5.40;99.90;;;;;;5114853;28;19927;-75
2022/10/09 03:33:53;;;;;;;;;;;5.30;99.90;;;;;;5085890;28;19920;-75
2022/10/09 03:36:20;;;;;;;;;;;5.40;99.90;;;;;;5085164;28;19988;-75
2022/10/09 03:38:47;;;;;;;;;;;5.30;99.90;;;;;;5085441;28;19987;-75
2022/10/09 03:41:13;;;;;;;;;;;5.30;99.90;;;;;;5085781;28;19967;-75
2022/10/09 03:43:40;;;;;;;;;;;5.30;99.90;;;;;;5085912;28;19951;-75
2022/10/09 03:46:08;;;;;;;;;;;5.30;99.90;;;;;;5084937;28;19970;-75
2022/10/09 03:48:35;;;;;;;;;;;5.30;99.90;;;;;;5111359;28;20211;-75
2022/10/09 03:51:02;;;;;;;;;;;5.30;99.90;;;;;;5105195;28;19920;-75
2022/10/09 03:53:29;;;;;;;;;;;5.20;99.90;;;;;;5113054;28;19942;-75
2022/10/09 03:55:55;;;;;;;;;;;5.20;99.90;;;;;;5125275;28;19951;-75
2022/10/09 03:58:22;;;;;;;;;;;5.20;99.90;;;;;;5090053;27;19988;-74
2022/10/09 04:00:49;;;;;;;;;;;5.20;99.90;;;;;;5096190;28;19928;-75
2022/10/09 04:03:18;;;;;;;;;;;5.20;99.90;;;;;;5104763;28;19920;-74
2022/10/09 04:05:44;;;;;;;;;;;5.10;99.90;;;;;;5104220;28;19955;-74
2022/10/09 04:08:11;;;;;;;;;;;5.10;99.90;;;;;;5104239;28;20225;-75
2022/10/09 04:10:38;;;;;;;;;;;5.10;99.90;;;;;;5105337;28;19920;-75
2022/10/09 04:13:05;;;;;;;;;;;5.10;99.90;;;;;;5104667;28;19962;-74
2022/10/09 04:15:31;;;;;;;;;;;5.10;99.90;;;;;;5086038;28;19956;-75
2022/10/09 04:17:58;;;;;;;;;;;5.10;99.90;;;;;;5084861;28;19983;-75
2022/10/09 04:20:26;;;;;;;;;;;5.10;99.90;;;;;;5084859;28;19983;-74
2022/10/09 04:22:52;;;;;;;;;;;5.00;99.90;;;;;;5091167;28;19920;-75
2022/10/09 04:25:19;;;;;;;;;;;5.00;99.90;;;;;;5112065;28;19979;-75
2022/10/09 04:27:46;;;;;;;;;;;5.00;99.90;;;;;;5113166;28;19927;-75
2022/10/09 04:30:12;;;;;;;;;;;5.00;99.90;;;;;;5119517;28;19920;-75
2022/10/09 04:32:39;;;;;;;;;;;5.00;99.90;;;;;;5098176;28;19921;-75
2022/10/09 04:35:06;;;;;;;;;;;4.90;99.90;;;;;;5090297;28;20266;-75
2022/10/09 04:37:35;;;;;;;;;;;4.90;99.90;;;;;;5104732;28;19955;-75
2022/10/09 04:40:02;;;;;;;;;;;4.90;99.90;;;;;;5104832;28;19920;-75
2022/10/09 04:42:28;;;;;;;;;;;4.90;99.90;;;;;;5104777;28;19955;-75
2022/10/09 04:44:55;;;;;;;;;;;4.90;99.90;;;;;;5098099;28;19920;-74
2022/10/09 04:47:22;;;;;;;;;;;4.80;99.90;;;;;;5103952;28;20007;-74
2022/10/09 04:49:48;;;;;;;;;;;4.80;99.90;;;;;;5104251;28;20085;-74
2022/10/09 04:52:15;;;;;;;;;;;4.80;99.90;;;;;;5105540;28;19920;-74
2022/10/09 04:54:43;;;;;;;;;;;4.80;99.90;;;;;;5121217;28;19979;-74
2022/10/09 04:57:09;;;;;;;;;;;4.70;99.90;;;;;;5102312;28;19920;-74
2022/10/09 04:59:36;;;;;;;;;;;4.70;99.90;;;;;;5084091;28;19984;-74
2022/10/09 05:02:03;;;;;;;;;;;4.70;99.90;;;;;;5084055;28;19991;-74
2022/10/09 05:04:30;;;;;;;;;;;4.70;99.90;;;;;;5098847;28;20281;-74
2022/10/09 05:06:56;;;;;;;;;;;4.60;99.90;;;;;;5104094;28;20123;-74
2022/10/09 05:09:23;;;;;;;;;;;4.60;99.90;;;;;;5092757;28;19927;-74
2022/10/09 05:11:51;;;;;;;;;;;4.60;99.90;;;;;;5083799;28;19927;-74
2022/10/09 05:14:17;;;;;;;;;;;4.60;99.90;;;;;;5083825;28;19920;-74
2022/10/09 05:16:44;;;;;;;;;;;4.50;99.90;;;;;;5087471;28;19987;-74
2022/10/09 05:19:11;;;;;;;;;;;4.50;99.90;;;;;;5093956;28;19988;-74
2022/10/09 05:21:37;;;;;;;;;;;4.40;99.90;;;;;;5092594;28;19951;-74
2022/10/09 05:24:04;;;;;;;;;;;4.40;99.90;;;;;;5105482;28;19927;-74
2022/10/09 05:26:30;;;;;;;;;;;4.40;99.90;;;;;;5120524;28;19979;-74
2022/10/09 05:28:58;;;;;;;;;;;4.40;99.90;;;;;;5101833;28;20186;-74
2022/10/09 05:31:26;;;;;;;;;;;4.30;99.90;;;;;;5103176;28;19920;-74
2022/10/09 05:33:52;;;;;;;;;;;4.40;99.90;;;;;;5103614;28;19983;-74
2022/10/09 05:36:19;;;;;;;;;;;4.40;99.90;;;;;;5103565;28;20002;-74
2022/10/09 05:38:46;;;;;;;;;;;4.30;99.90;;;;;;5099275;28;19926;-74
2022/10/09 05:41:14;;;;;;;;;;;4.40;99.90;;;;;;5103712;28;19942;-74
2022/10/09 05:43:41;;;;;;;;;;;4.40;99.90;;;;;;5103698;28;19979;-74
2022/10/09 05:46:11;;;;;;;;;;;4.30;99.90;;;;;;5103414;28;19982;-74
2022/10/09 05:48:38;;;;;;;;;;;4.40;99.90;;;;;;5104231;28;19927;-74
2022/10/09 05:51:10;;;;;;;;;;;4.40;99.90;;;;;;5093471;28;19927;-73
2022/10/09 05:53:37;;;;;;;;;;;4.40;99.90;;;;;;5096336;28;19927;-74
2022/10/09 05:56:14;;;;;;;;;;;4.40;99.90;;;;;;5123499;28;19982;-74
2022/10/09 05:58:41;;;;;;;;;;;4.40;99.90;;;;;;5087747;28;19920;-74
2022/10/09 06:01:08;;;;;;;;;;;4.40;99.90;;;;;;5083226;28;19927;-74
2022/10/09 06:03:36;;;;;;;;;;;4.50;99.90;;;;;;5083284;28;19924;-74
2022/10/09 06:06:04;;;;;;;;;;;4.50;99.90;;;;;;5082645;28;19927;-74
2022/10/09 06:08:31;;;;;;;;;;;4.50;99.90;;;;;;5089133;28;19926;-74
2022/10/09 06:10:58;;;;;;;;;;;4.60;99.90;;;;;;5093103;28;19927;-73
2022/10/09 06:13:26;;;;;;;;;;;4.60;99.90;;;;;;5103416;28;19928;-73
2022/10/09 06:15:53;;;;;;;;;;;4.60;99.90;;;;;;5102770;28;19931;-73
2022/10/09 06:18:19;;;;;;;;;;;4.60;99.90;;;;;;5103375;28;19920;-74
2022/10/09 06:20:54;;;;;;;;;;;4.50;99.90;;;;;;5083762;28;19927;-74
2022/10/09 06:23:20;;;;;;;;;;;4.50;99.90;;;;;;5083747;28;19988;-74
2022/10/09 06:25:50;;;;;;;;;;;4.50;99.90;;;;;;5083065;28;19920;-74
2022/10/09 06:28:17;;;;;;;;;;;4.50;99.90;;;;;;5107004;28;19926;-76
2022/10/09 06:30:44;;;;;;;;;;;4.60;99.90;;;;;;5121612;28;19951;-74
2022/10/09 06:33:10;;;;;;;;;;;4.60;99.90;;;;;;5128010;28;19920;-74
2022/10/09 06:35:37;;;;;;;;;;;4.60;99.90;;;;;;5127618;28;19955;-74
2022/10/09 06:38:05;;;;;;;;;;;4.60;99.90;;;;;;5128356;28;20156;-76
2022/10/09 06:40:34;;;;;;;;;;;4.60;99.90;;;;;;5128232;28;19919;-74
2022/10/09 06:43:01;;;;;;;;;;;4.60;99.90;;;;;;5127983;28;19997;-76
2022/10/09 06:45:27;;;;;;;;;;;4.70;99.90;;;;;;5127185;28;19986;-76
2022/10/09 06:47:54;;;;;;;;;;;4.60;99.90;;;;;;5107822;28;20119;-76
2022/10/09 06:50:20;;;;;;;;;;;4.70;99.90;;;;;;5091168;28;19920;-76
2022/10/09 06:52:47;;;;;;;;;;;4.70;99.90;;;;;;5126201;28;20156;-74
2022/10/09 06:55:15;;;;;;;;;;;4.70;99.90;;;;;;5112233;28;19984;-76
2022/10/09 06:57:42;;;;;;;;;;;4.70;99.90;;;;;;5095027;28;19943;-76
2022/10/09 07:00:09;;;;;;;;;;;4.70;99.90;;;;;;5087007;28;19983;-76
2022/10/09 07:02:36;;;;;;;;;;;4.70;99.90;;;;;;5086896;28;19920;-76
2022/10/09 07:05:02;;;;;;;;;;;4.80;99.90;;;;;;5085874;28;19959;-76
2022/10/09 07:07:29;;;;;;;;;;;4.80;99.90;;;;;;5107232;28;19988;-76
2022/10/09 07:09:55;;;;;;;;;;;4.80;99.90;;;;;;5107053;28;20004;-72
2022/10/09 07:12:24;;;;;;;;;;;4.80;99.90;;;;;;5089897;28;19984;-75
2022/10/09 07:14:50;;;;;;;;;;;4.80;99.90;;;;;;5103826;28;19928;-72
2022/10/09 07:17:17;;;;;;;;;;;4.90;99.90;;;;;;5106995;28;19982;-72
2022/10/09 07:19:43;;;;;;;;;;;4.90;99.90;;;;;;5093895;28;19921;-74
2022/10/09 07:22:10;;;;;;;;;;;4.90;99.90;;;;;;5086121;28;20234;-74
2022/10/09 07:24:37;;;;;;;;;;;5.00;99.90;;;;;;5088250;28;19967;-74
2022/10/09 07:27:03;;;;;;;;;;;5.10;99.90;;;;;;5119426;27;19955;-74
2022/10/09 07:29:31;;;;;;;;;;;5.10;99.90;;;;;;5111591;28;19988;-75
2022/10/09 07:31:58;;;;;;;;;;;5.20;99.90;;;;;;5086461;28;19920;-75
2022/10/09 07:34:25;;;;;;;;;;;5.20;99.90;;;;;;5086243;28;19956;-75
2022/10/09 07:36:51;;;;;;;;;;;5.30;99.90;;;;;;5085415;28;19921;-75
2022/10/09 07:39:18;;;;;;;;;;;5.30;99.90;;;;;;5086304;28;19942;-73
2022/10/09 07:41:46;;;;;;;;;;;5.40;99.90;;;;;;5085950;28;20093;-73
2022/10/09 07:44:13;;;;;;;;;;;5.50;99.90;;;;;;5084735;28;19920;-75
2022/10/09 07:46:41;;;;;;;;;;;5.70;99.90;;;;;;5085271;28;19948;-73
2022/10/09 07:49:07;;;;;;;;;;;5.90;99.90;;;;;;5086007;28;19935;-72
2022/10/09 07:51:34;;;;;;;;;;;6.00;99.90;;;;;;5094736;28;20173;-73
2022/10/09 07:54:01;;;;;;;;;;;6.20;99.90;;;;;;5089774;28;19920;-71
2022/10/09 07:56:29;;;;;;;;;;;6.30;99.90;;;;;;5086891;28;19920;-72
2022/10/09 07:58:56;;;;;;;;;;;6.50;99.90;;;;;;5106212;28;19951;-72
2022/10/09 08:01:26;;;;;;;;;;;6.60;99.90;;;;;;5103240;28;20085;-72
2022/10/09 08:03:54;;;;;;;;;;;6.70;99.90;;;;;;5106126;28;19924;-73
2022/10/09 08:06:21;;;;;;;;;;;6.80;99.90;;;;;;5105033;28;20114;-72
2022/10/09 08:08:49;;;;;;;;;;;6.90;99.90;;;;;;5105774;28;20276;-73
2022/10/09 08:11:16;;;;;;;;;;;7.00;99.90;;;;;;5105992;28;19920;-73
2022/10/09 08:13:43;;;;;;;;;;;7.00;99.90;;;;;;5105807;28;19920;-73
2022/10/09 08:16:10;;;;;;;;;;;7.10;99.90;;;;;;5096500;28;19927;-73
2022/10/09 08:18:37;;;;;;;;;;;7.10;99.90;;;;;;5085384;28;19920;-73
2022/10/09 08:21:06;;;;;;;;;;;7.20;99.90;;;;;;5085437;28;19920;-72
2022/10/09 08:23:33;;;;;;;;;;;7.40;99.90;;;;;;5085622;28;20148;-75
2022/10/09 08:26:00;;;;;;;;;;;7.60;99.90;;;;;;5086093;28;19987;-72
2022/10/09 08:28:26;;;;;;;;;;;7.70;99.90;;;;;;5110745;28;19955;-73
2022/10/09 08:30:57;;;;;;;;;;;7.80;99.90;;;;;;5081846;28;19951;-73
2022/10/09 08:33:24;;;;;;;;;;;7.90;99.90;;;;;;5085240;28;19920;-73
2022/10/09 08:35:51;;;;;;;;;;;8.10;99.90;;;;;;5084389;28;20159;-73
2022/10/09 08:38:20;;;;;;;;;;;8.20;99.90;;;;;;5085075;28;19958;-73
2022/10/09 08:40:55;;;;;;;;;;;8.30;99.90;;;;;;5082346;28;20111;-73
2022/10/09 08:43:28;;;;;;;;;;;8.40;99.90;;;;;;5084715;28;19920;-74
2022/10/09 08:45:55;;;;;;;;;;;8.50;99.90;;;;;;5087479;28;19978;-73
2022/10/09 08:48:23;;;;;;;;;;;8.60;99.90;;;;;;5105149;28;19926;-73
2022/10/09 08:50:52;;;;;;;;;;;8.70;99.90;;;;;;5107066;28;19926;-73
2022/10/09 08:53:25;;;;;;;;;;;8.90;99.90;;;;;;5094799;28;19920;-73
2022/10/09 08:55:54;;;;;;;;;;;9.00;99.90;;;;;;5124254;28;20126;-73
2022/10/09 08:58:22;;;;;;;;;;;9.20;99.90;;;;;;5107124;28;19927;-73
2022/10/09 09:00:51;;;;;;;;;;;9.30;99.90;;;;;;5104628;28;19928;-73
2022/10/09 09:03:33;;;;;;;;;;;9.40;99.90;;;;;;5104821;28;19920;-74
2022/10/09 09:06:04;;;;;;;;;;;9.50;99.90;;;;;;5103829;28;19927;-75
2022/10/09 09:08:41;;;;;;;;;;;9.70;99.90;;;;;;5104759;28;20114;-74
2022/10/09 09:11:13;;;;;;;;;;;9.80;99.90;;;;;;5098478;28;19928;-74
2022/10/09 09:13:45;;;;;;;;;;;9.80;99.90;;;;;;5084886;28;19958;-74
2022/10/09 09:16:18;;;;;;;;;;;10.00;99.90;;;;;;5083314;28;20262;-74
2022/10/09 09:18:48;;;;;;;;;;;10.10;99.90;;;;;;5084390;28;19920;-75
2022/10/09 09:21:16;;;;;;;;;;;10.20;99.90;;;;;;5084277;28;20008;-76
2022/10/09 09:23:46;;;;;;;;;;;10.30;99.90;;;;;;5095694;28;19983;-74
2022/10/09 09:26:15;;;;;;;;;;;10.30;99.90;;;;;;5089566;28;19927;-73
2022/10/09 09:28:42;;;;;;;;;;;10.40;99.90;;;;;;5113071;28;19991;-74
2022/10/09 09:31:13;;;;;;;;;;;10.60;99.90;;;;;;5123894;27;20204;-74
2022/10/09 09:33:41;;;;;;;;;;;10.60;99.90;;;;;;5088481;28;19975;-73
2022/10/09 09:36:11;;;;;;;;;;;10.70;99.90;;;;;;5083547;28;19928;-74
2022/10/09 09:38:38;;;;;;;;;;;10.90;99.90;;;;;;5084132;28;19920;-74
2022/10/09 09:41:06;;;;;;;;;;;11.10;99.90;;;;;;5080628;28;20254;-74
2022/10/09 09:43:34;;;;;;;;;;;11.10;99.90;;;;;;5083999;28;19920;-73
2022/10/09 09:46:01;;;;;;;;;;;11.30;99.90;;;;;;5091329;28;19979;-74
2022/10/09 09:48:32;;;;;;;;;;;11.40;99.90;;;;;;5083909;28;19955;-74
2022/10/09 09:50:58;;;;;;;;;;;11.50;99.90;;;;;;5092199;28;19926;-74
2022/10/09 09:53:27;;;;;;;;;;;11.70;99.90;;;;;;5108687;28;20003;-74
2022/10/09 09:55:54;;;;;;;;;;;11.80;99.90;;;;;;5095075;28;19932;-74
2022/10/09 09:58:22;;;;;;;;;;;11.90;99.90;;;;;;5093123;28;20157;-74
2022/10/09 10:00:56;;;;;;;;;;;12.10;99.90;;;;;;5097378;28;19919;-73
2022/10/09 10:03:23;;;;;;;;;;;12.10;99.90;;;;;;5088820;28;20108;-74
2022/10/09 10:05:50;;;;;;;;;;;12.20;99.90;;;;;;5090636;28;19927;-74
2022/10/09 10:08:22;;;;;;;;;;;12.30;99.90;;;;;;5107570;28;19927;-74
2022/10/09 10:10:50;;;;;;;;;;;12.50;99.90;;;;;;5091186;28;19924;-73
2022/10/09 10:13:18;;;;;;;;;;;12.50;99.90;;;;;;5087662;28;19991;-74
2022/10/09 10:15:51;;;;;;;;;;;12.60;99.90;;;;;;5085314;28;20115;-73
2022/10/09 10:18:18;;;;;;;;;;;12.70;99.90;;;;;;5098043;28;20222;-74
2022/10/09 10:20:46;;;;;;;;;;;12.80;99.90;;;;;;5099521;28;19920;-74
2022/10/09 10:23:22;;;;;;;;;;;12.90;99.90;;;;;;5102042;28;19920;-73
2022/10/09 10:25:50;;;;;;;;;;;13.00;99.90;;;;;;5099501;28;19926;-74
2022/10/09 10:28:19;;;;;;;;;;;13.20;99.90;;;;;;5097529;28;19920;-75
2022/10/09 10:30:46;;;;;;;;;;;13.30;99.90;;;;;;5087415;28;19978;-74
2022/10/09 10:33:18;;;;;;;;;;;13.40;99.90;;;;;;5087504;28;19951;-74
2022/10/09 10:35:45;;;;;;;;;;;13.50;99.90;;;;;;5107635;28;19932;-74
2022/10/09 10:38:12;;;;;;;;;;;13.60;99.90;;;;;;5122272;28;19981;-74
2022/10/09 10:40:43;;;;;;;;;;;13.70;99.90;;;;;;5107641;28;19967;-71
2022/10/09 10:43:26;;;;;;;;;;;13.80;99.90;;;;;;5095753;28;20104;-70
2022/10/09 10:45:58;;;;;;;;;;;13.90;99.90;;;;;;5123428;22;19995;-69
2022/10/09 10:48:28;;;;;;;;;;;14.00;99.90;;;;;;5101821;28;19927;-69
2022/10/09 10:51:01;;;;;;;;;;;14.20;99.90;;;;;;5091262;28;20151;-71
2022/10/09 10:53:32;;;;;;;;;;;14.40;99.90;;;;;;5107179;28;20115;-71
2022/10/09 10:56:02;;;;;;;;;;;14.40;99.90;;;;;;5098745;28;19943;-70
2022/10/09 10:58:29;;;;;;;;;;;14.50;99.90;;;;;;5105564;28;20257;-71
2022/10/09 11:01:06;;;;;;;;;;;14.60;99.90;;;;;;5099733;28;19956;-71
2022/10/09 11:03:40;;;;;;;;;;;14.70;99.90;;;;;;5091636;28;20063;-71
2022/10/09 11:06:11;;;;;;;;;;;14.80;99.90;;;;;;5085625;28;19987;-71
2022/10/09 11:08:44;;;;;;;;;;;14.90;99.90;;;;;;5095987;28;19987;-71
2022/10/09 11:11:13;;;;;;;;;;;15.10;99.90;;;;;;5105374;28;19935;-71
2022/10/09 11:13:47;;;;;;;;;;;15.20;99.90;;;;;;5104018;28;19987;-72
2022/10/09 11:16:18;;;;;;;;;;;15.40;99.90;;;;;;5104264;28;19926;-71
2022/10/09 11:19:03;;;;;;;;;;;15.30;99.90;;;;;;5106231;28;19920;-71
2022/10/09 11:21:37;;;;;;;;;;;15.40;99.90;;;;;;5105828;28;20024;-71
2022/10/09 11:24:16;;;;;;;;;;;15.50;99.90;;;;;;5097857;28;19948;-71
2022/10/09 11:26:44;;;;;;;;;;;15.70;99.90;;;;;;5101548;28;19920;-72
2022/10/09 11:29:16;;;;;;;;;;;16.00;99.90;;;;;;5094147;28;20166;-71
2022/10/09 11:31:46;;;;;;;;;;;16.20;99.90;;;;;;5085743;28;20230;-71
2022/10/09 11:34:16;;;;;;;;;;;16.30;99.90;;;;;;5091140;28;19991;-73
2022/10/09 11:36:44;;;;;;;;;;;16.50;99.90;;;;;;5100414;28;19927;-71
2022/10/09 11:39:14;;;;;;;;;;;16.60;99.90;;;;;;5085521;28;19987;-72
2022/10/09 11:41:41;;;;;;;;;;;16.50;99.90;;;;;;5093755;28;19952;-71
2022/10/09 11:44:16;;;;;;;;;;;16.50;99.90;;;;;;5105618;28;19987;-71
2022/10/09 11:46:46;;;;;;;;;;;16.50;99.90;;;;;;5105345;28;19998;-71
2022/10/09 11:49:17;;;;;;;;;;;16.50;99.90;;;;;;5105795;28;19927;-71
2022/10/09 11:51:47;;;;;;;;;;;16.70;99.90;;;;;;5102434;28;19920;-72
2022/10/09 11:54:16;;;;;;;;;;;16.90;99.90;;;;;;5105890;28;19927;-72
2022/10/09 11:56:51;;;;;;;;;;;16.90;99.90;;;;;;5104336;28;20187;-71
2022/10/09 11:59:21;;;;;;;;;;;17.00;99.90;;;;;;5105194;28;20203;-71
2022/10/09 12:01:47;;;;;;;;;;;17.00;99.90;;;;;;5105261;28;19920;-71
2022/10/09 12:04:22;;;;;;;;;;;17.10;99.90;;;;;;5105444;28;19927;-71
2022/10/09 12:06:51;;;;;;;;;;;17.20;99.90;;;;;;5104706;28;19926;-72
2022/10/09 12:09:21;;;;;;;;;;;17.30;99.90;;;;;;5104955;28;19920;-71
2022/10/09 12:11:54;;;;;;;;;;;17.50;99.90;;;;;;5105127;28;19999;-72
2022/10/09 12:14:24;;;;;;;;;;;17.60;99.90;;;;;;5105209;28;20262;-72
2022/10/09 12:16:50;;;;;;;;;;;17.70;99.90;;;;;;5104488;28;19987;-72
2022/10/09 12:19:19;;;;;;;;;;;18.00;99.90;;;;;;5104901;28;19991;-72
2022/10/09 12:21:48;;;;;;;;;;;18.10;99.90;;;;;;5104714;28;20266;-72
2022/10/09 12:24:19;;;;;;;;;;;18.30;99.90;;;;;;5105015;28;19920;-71
2022/10/09 12:26:47;;;;;;;;;;;18.40;99.90;;;;;;5103690;28;19920;-72
2022/10/09 12:29:18;;;;;;;;;;;18.60;99.90;;;;;;5103782;28;19920;-71
2022/10/09 12:31:45;;;;;;;;;;;18.50;99.90;;;;;;5104941;28;19920;-71
2022/10/09 12:34:16;;;;;;;;;;;18.20;99.90;;;;;;5103424;28;20211;-72
2022/10/09 12:36:43;;;;;;;;;;;18.30;99.90;;;;;;5095758;28;19946;-71
2022/10/09 12:39:13;;;;;;;;;;;18.40;99.90;;;;;;5104956;28;19983;-71
2022/10/09 12:41:43;;;;;;;;;;;18.60;99.90;;;;;;5104054;28;20258;-72
2022/10/09 12:44:16;;;;;;;;;;;18.80;99.90;;;;;;5104242;28;20210;-71
2022/10/09 12:46:43;;;;;;;;;;;18.90;99.90;;;;;;5103848;28;20161;-72
2022/10/09 12:49:16;;;;;;;;;;;19.10;99.90;;;;;;5104397;28;19928;-71
2022/10/09 12:51:49;;;;;;;;;;;19.30;99.90;;;;;;5104445;28;19987;-72
2022/10/09 12:54:16;;;;;;;;;;;19.40;99.90;;;;;;5104666;28;19974;-72
2022/10/09 12:56:44;;;;;;;;;;;19.50;99.90;;;;;;5103481;28;19920;-71
2022/10/09 12:59:12;;;;;;;;;;;19.60;99.90;;;;;;5103856;28;20216;-71
2022/10/09 13:01:39;;;;;;;;;;;19.50;99.90;;;;;;5104424;28;19991;-71
2022/10/09 13:04:08;;;;;;;;;;;19.50;99.90;;;;;;5104135;28;19927;-72
2022/10/09 13:06:37;;;;;;;;;;;19.60;99.90;;;;;;5103666;28;19934;-72
2022/10/09 13:09:05;;;;;;;;;;;19.40;99.90;;;;;;5103820;28;19920;-72
2022/10/09 13:11:32;;;;;;;;;;;19.40;99.90;;;;;;5104201;28;19920;-71
2022/10/09 13:14:01;;;;;;;;;;;19.40;99.90;;;;;;5103495;28;19920;-72
2022/10/09 13:16:38;;;;;;;;;;;19.40;99.90;;;;;;5103088;28;19920;-71
2022/10/09 13:19:19;;;;;;;;;;;19.40;99.90;;;;;;5104073;28;19987;-71
2022/10/09 13:21:46;;;;;;;;;;;19.40;99.90;;;;;;5103921;28;20097;-70
2022/10/09 13:24:13;;;;;;;;;;;19.50;99.90;;;;;;5103740;28;19983;-72
2022/10/09 13:26:40;;;;;;;;;;;19.50;99.90;;;;;;5102120;28;19919;-71
2022/10/09 13:29:09;;;;;;;;;;;19.50;99.90;;;;;;5103329;28;19920;-71
2022/10/09 13:31:35;;;;;;;;;;;19.50;99.90;;;;;;5100191;28;19928;-71
2022/10/09 13:34:09;;;;;;;;;;;19.60;99.90;;;;;;5099373;28;20212;-71
2022/10/09 13:36:36;;;;;;;;;;;19.80;99.90;;;;;;5093231;28;20139;-72
2022/10/09 13:39:03;;;;;;;;;;;19.90;99.90;;;;;;5100307;28;19927;-71
2022/10/09 13:41:30;;;;;;;;;;;20.00;99.90;;;;;;5087984;28;19926;-71
2022/10/09 13:43:57;;;;;;;;;;;19.90;99.90;;;;;;5083452;28;19942;-72
2022/10/09 13:46:25;;;;;;;;;;;19.70;99.90;;;;;;5082626;28;19927;-71
2022/10/09 13:48:51;;;;;;;;;;;19.70;99.90;;;;;;5092313;28;19920;-71
2022/10/09 13:51:18;;;;;;;;;;;19.70;99.90;;;;;;5090978;28;19920;-71
2022/10/09 13:53:44;;;;;;;;;;;19.60;99.90;;;;;;5103287;28;19920;-71
2022/10/09 13:56:11;;;;;;;;;;;19.60;99.90;;;;;;5102795;28;19975;-72
2022/10/09 13:58:38;;;;;;;;;;;19.50;99.90;;;;;;5103431;28;19983;-71
2022/10/09 14:01:04;;;;;;;;;;;19.50;99.90;;;;;;5103281;28;19982;-71
2022/10/09 14:03:32;;;;;;;;;;;19.60;99.90;;;;;;5103430;28;19999;-72
2022/10/09 14:06:00;;;;;;;;;;;19.70;99.90;;;;;;5096649;28;19942;-71
2022/10/09 14:08:26;;;;;;;;;;;19.70;99.90;;;;;;5093409;28;19920;-71
2022/10/09 14:10:53;;;;;;;;;;;19.80;99.90;;;;;;5103311;28;19921;-72
2022/10/09 14:13:20;;;;;;;;;;;19.90;99.90;;;;;;5103222;28;19987;-71
2022/10/09 14:15:47;;;;;;;;;;;20.00;99.90;;;;;;5102630;28;19928;-71
2022/10/09 14:18:13;;;;;;;;;;;20.20;99.90;;;;;;5102933;28;20202;-71
2022/10/09 14:20:41;;;;;;;;;;;20.00;99.00;;;;;;5103596;28;19924;-71
2022/10/09 14:23:08;;;;;;;;;;;19.90;99.90;;;;;;5103302;28;19951;-72
2022/10/09 14:25:35;;;;;;;;;;;19.90;99.90;;;;;;5101930;28;19983;-71
2022/10/09 14:28:01;;;;;;;;;;;19.80;99.90;;;;;;5102850;28;20267;-71
2022/10/09 14:30:28;;;;;;;;;;;19.70;99.90;;;;;;5102861;28;19951;-71
2022/10/09 14:32:55;;;;;;;;;;;19.70;99.90;;;;;;5102156;28;19984;-71